createdAt,value
2023-02-28T00:01:48.531Z,8.70
2023-02-28T00:04:15.596Z,4.53
2023-02-28T00:06:43.091Z,7.18
2023-02-28T00:09:10.164Z,4.50
2023-02-28T00:11:38.809Z,5.55
2023-02-28T00:14:05.846Z,4.03
2023-02-28T00:16:32.922Z,5.63
2023-02-28T00:18:59.986Z,4.80
2023-02-28T00:21:27.740Z,6.32
2023-02-28T00:23:54.847Z,6.65
2023-02-28T00:26:22.154Z,5.72
2023-02-28T00:28:49.584Z,10.98
2023-02-28T00:31:16.907Z,7.43
2023-02-28T00:33:44.004Z,4.68
2023-02-28T00:36:12.518Z,4.10
2023-02-28T00:38:40.561Z,4.72
2023-02-28T00:41:08.607Z,8.82
2023-02-28T00:43:37.826Z,5.65
2023-02-28T00:46:05.732Z,4.07
2023-02-28T00:48:33.467Z,4.85
2023-02-28T00:51:00.934Z,4.20
2023-02-28T00:53:29.120Z,6.38
2023-02-28T00:55:56.322Z,8.73
2023-02-28T00:58:23.353Z,6.20
2023-02-28T01:00:52.118Z,9.02
2023-02-28T01:03:20.826Z,4.20
2023-02-28T01:05:48.255Z,4.40
2023-02-28T01:08:15.630Z,5.93
2023-02-28T01:10:43.173Z,7.10
2023-02-28T01:13:10.654Z,3.83
2023-02-28T01:15:38.803Z,5.78
2023-02-28T01:18:05.892Z,4.38
2023-02-28T01:20:32.941Z,3.38
2023-02-28T01:22:59.995Z,6.13
2023-02-28T01:25:27.572Z,7.55
2023-02-28T01:27:54.617Z,4.10
2023-02-28T01:30:21.673Z,5.63
2023-02-28T01:32:48.689Z,8.75
2023-02-28T01:35:15.810Z,5.45
2023-02-28T01:37:42.896Z,7.50
2023-02-28T01:40:10.423Z,7.38
2023-02-28T01:42:37.533Z,5.32
2023-02-28T01:45:27.749Z,3.70
2023-02-28T01:48:09.121Z,4.18
2023-02-28T01:50:40.649Z,9.45
2023-02-28T01:53:23.446Z,3.95
2023-02-28T01:55:53.101Z,9.55
2023-02-28T01:58:20.316Z,5.57
2023-02-28T02:00:47.540Z,7.90
2023-02-28T02:03:19.897Z,11.52
2023-02-28T02:05:48.652Z,3.85
2023-02-28T02:08:22.607Z,5.72
2023-02-28T02:10:58.852Z,5.80
2023-02-28T02:13:37.989Z,6.78
2023-02-28T02:16:31.547Z,6.05
2023-02-28T02:19:35.124Z,5.28
2023-02-28T02:22:20.406Z,3.40
2023-02-28T02:25:31.804Z,5.07
2023-02-28T02:28:16.688Z,5.75
2023-02-28T02:30:59.097Z,9.93
2023-02-28T02:33:44.012Z,8.52
2023-02-28T02:36:22.554Z,3.80
2023-02-28T02:39:07.763Z,6.18
2023-02-28T02:42:01.312Z,8.20
2023-02-28T02:44:47.035Z,6.05
2023-02-28T02:47:18.356Z,5.43
2023-02-28T02:49:51.482Z,7.00
2023-02-28T02:52:22.895Z,8.15
2023-02-28T02:54:56.401Z,6.35
2023-02-28T02:57:31.047Z,7.00
2023-02-28T03:00:01.436Z,7.35
2023-02-28T03:02:35.064Z,5.20
2023-02-28T03:07:49.328Z,6.45
2023-02-28T03:10:42.155Z,6.00
2023-02-28T03:13:38.400Z,7.38
2023-02-28T03:16:29.642Z,10.65
2023-02-28T03:19:18.266Z,5.72
2023-02-28T03:22:28.745Z,5.65
2023-02-28T03:25:10.011Z,6.78
2023-02-28T03:27:42.645Z,7.32
2023-02-28T03:30:18.339Z,6.78
2023-02-28T03:33:00.816Z,8.05
2023-02-28T03:35:33.557Z,6.43
2023-02-28T03:38:28.736Z,3.93
2023-02-28T03:41:10.473Z,9.52
2023-02-28T03:43:41.915Z,4.90
2023-02-28T03:46:13.801Z,5.85
2023-02-28T03:48:50.036Z,5.07
2023-02-28T03:51:20.275Z,6.45
2023-02-28T03:53:55.893Z,10.38
2023-02-28T03:56:44.381Z,4.70
2023-02-28T03:59:18.913Z,6.07
2023-02-28T04:01:48.914Z,6.75
2023-02-28T04:04:17.718Z,5.90
2023-02-28T04:06:45.702Z,4.68
2023-02-28T04:09:15.219Z,5.28
2023-02-28T04:11:50.118Z,4.82
2023-02-28T04:14:17.109Z,4.78
2023-02-28T04:16:44.463Z,8.30
2023-02-28T04:19:13.610Z,4.72
2023-02-28T04:21:44.786Z,6.45
2023-02-28T04:24:15.363Z,4.53
2023-02-28T04:26:48.948Z,5.57
2023-02-28T04:29:24.146Z,4.85
2023-02-28T04:31:51.652Z,3.70
2023-02-28T04:34:19.963Z,3.05
2023-02-28T04:36:47.085Z,4.72
2023-02-28T04:39:14.387Z,2.10
2023-02-28T04:41:41.464Z,2.75
2023-02-28T04:44:08.497Z,3.53
2023-02-28T04:46:35.556Z,5.50
2023-02-28T04:49:02.628Z,5.22
2023-02-28T04:51:30.606Z,2.78
2023-02-28T04:53:58.660Z,6.68
2023-02-28T04:56:25.783Z,4.03
2023-02-28T04:58:54.071Z,8.50
2023-02-28T05:01:26.768Z,4.43
2023-02-28T05:03:56.537Z,2.55
2023-02-28T05:06:25.980Z,8.52
2023-02-28T05:08:53.913Z,3.80
2023-02-28T05:11:35.903Z,2.38
2023-02-28T05:14:04.947Z,4.47
2023-02-28T05:16:33.293Z,5.30
2023-02-28T05:19:00.466Z,11.68
2023-02-28T05:21:33.194Z,8.27
2023-02-28T05:24:03.366Z,6.87
2023-02-28T05:26:32.514Z,3.88
2023-02-28T05:28:59.640Z,4.22
2023-02-28T05:31:27.339Z,3.53
2023-02-28T05:33:54.878Z,3.30
2023-02-28T05:36:22.566Z,11.73
2023-02-28T05:38:50.665Z,5.25
2023-02-28T05:41:20.240Z,4.75
2023-02-28T05:43:47.796Z,6.35
2023-02-28T05:46:15.594Z,5.15
2023-02-28T05:48:43.648Z,4.30
2023-02-28T05:51:10.809Z,5.03
2023-02-28T05:53:38.054Z,4.00
2023-02-28T05:56:05.504Z,4.18
2023-02-28T05:58:35.776Z,3.35
2023-02-28T06:01:27.418Z,9.55
2023-02-28T06:03:54.683Z,6.22
2023-02-28T06:06:21.720Z,3.45
2023-02-28T06:08:49.087Z,3.05
2023-02-28T06:11:16.220Z,5.22
2023-02-28T06:13:43.248Z,4.18
2023-02-28T06:16:12.243Z,4.18
2023-02-28T06:18:40.082Z,3.78
2023-02-28T06:21:07.195Z,3.58
2023-02-28T06:23:34.252Z,4.45
2023-02-28T06:26:01.395Z,5.43
2023-02-28T06:28:28.699Z,5.47
2023-02-28T06:30:55.833Z,6.78
2023-02-28T06:33:22.996Z,6.40
2023-02-28T06:35:53.839Z,9.77
2023-02-28T06:38:21.073Z,5.15
2023-02-28T06:40:55.292Z,8.20
2023-02-28T06:43:23.303Z,4.40
2023-02-28T06:45:50.584Z,4.30
2023-02-28T06:48:18.855Z,6.22
2023-02-28T06:50:45.964Z,7.20
2023-02-28T06:53:13.184Z,4.57
2023-02-28T06:55:40.778Z,7.82
2023-02-28T06:58:15.608Z,6.93
2023-02-28T07:00:44.718Z,4.90
2023-02-28T07:03:12.852Z,6.15
2023-02-28T07:05:40.637Z,8.05
2023-02-28T07:08:07.958Z,5.93
2023-02-28T07:10:35.261Z,5.07
2023-02-28T07:13:02.387Z,7.13
2023-02-28T07:15:29.515Z,6.25
2023-02-28T07:17:58.114Z,7.22
2023-02-28T07:20:25.575Z,12.73
2023-02-28T07:22:58.146Z,6.35
2023-02-28T07:25:28.699Z,9.05
2023-02-28T07:27:58.228Z,8.10
2023-02-28T07:30:25.301Z,6.93
2023-02-28T07:32:52.756Z,8.40
2023-02-28T07:35:20.306Z,10.88
2023-02-28T07:37:48.102Z,7.50
2023-02-28T07:40:15.410Z,12.20
2023-02-28T07:42:42.805Z,7.53
2023-02-28T07:45:12.522Z,7.32
2023-02-28T07:47:40.228Z,5.38
2023-02-28T07:50:09.901Z,7.35
2023-02-28T07:52:39.788Z,6.53
2023-02-28T07:55:08.624Z,9.70
2023-02-28T07:57:36.025Z,6.53
2023-02-28T08:00:07.928Z,6.45
2023-02-28T08:02:34.961Z,5.68
2023-02-28T08:05:02.371Z,6.00
2023-02-28T08:07:29.704Z,9.02
2023-02-28T08:09:59.110Z,19.13
2023-02-28T08:12:27.330Z,8.25
2023-02-28T08:14:54.439Z,11.40
2023-02-28T08:17:21.526Z,15.50
2023-02-28T08:19:48.580Z,10.00
2023-02-28T08:22:15.708Z,8.25
2023-02-28T08:24:43.832Z,17.05
2023-02-28T08:27:10.937Z,8.32
2023-02-28T08:29:39.022Z,6.20
2023-02-28T08:32:14.540Z,8.98
2023-02-28T08:34:48.185Z,6.70
2023-02-28T08:37:15.309Z,6.78
2023-02-28T08:39:42.390Z,7.57
2023-02-28T08:42:09.413Z,6.00
2023-02-28T08:44:36.470Z,5.75
2023-02-28T08:47:03.601Z,8.55
2023-02-28T08:49:30.688Z,5.93
2023-02-28T08:52:00.961Z,6.00
2023-02-28T08:54:31.657Z,3.30
2023-02-28T08:56:59.191Z,5.40
2023-02-28T08:59:26.672Z,2.75
2023-02-28T09:01:54.575Z,6.75
2023-02-28T09:04:23.402Z,3.05
2023-02-28T09:06:51.802Z,9.02
2023-02-28T09:09:18.836Z,3.08
2023-02-28T09:11:45.880Z,2.97
2023-02-28T09:14:13.023Z,3.20
2023-02-28T09:16:40.499Z,3.70
2023-02-28T09:19:13.560Z,3.88
2023-02-28T09:21:41.030Z,4.25
2023-02-28T09:24:08.745Z,2.83
2023-02-28T09:26:42.823Z,2.15
2023-02-28T09:29:11.001Z,1.95
2023-02-28T09:31:38.082Z,2.03
2023-02-28T09:34:05.404Z,1.70
2023-02-28T09:36:43.750Z,1.40
2023-02-28T09:39:11.866Z,3.47
2023-02-28T09:41:51.907Z,1.65
2023-02-28T09:44:45.758Z,2.60
2023-02-28T09:47:22.377Z,2.25
2023-02-28T09:49:50.223Z,2.78
2023-02-28T09:52:25.420Z,1.38
2023-02-28T09:54:53.147Z,3.90
2023-02-28T09:57:27.318Z,1.70
2023-02-28T10:00:19.501Z,1.70
2023-02-28T10:03:24.121Z,1.25
2023-02-28T10:08:42.299Z,3.05
2023-02-28T10:11:16.248Z,1.48
2023-02-28T10:13:52.388Z,2.55
2023-02-28T10:17:01.191Z,1.73
2023-02-28T10:20:02.353Z,1.83
2023-02-28T10:22:37.299Z,1.63
2023-02-28T10:25:19.859Z,3.20
2023-02-28T10:27:46.917Z,2.53
2023-02-28T10:30:14.954Z,2.03
2023-02-28T10:32:50.221Z,1.63
2023-02-28T10:35:18.668Z,1.70
2023-02-28T10:37:48.352Z,1.95
2023-02-28T10:40:18.100Z,2.17
2023-02-28T10:43:06.602Z,2.13
2023-02-28T10:45:37.976Z,1.77
2023-02-28T10:48:27.496Z,1.90
2023-02-28T10:50:58.762Z,1.90
2023-02-28T10:53:25.844Z,1.88
2023-02-28T10:56:09.380Z,1.13
2023-02-28T10:58:54.310Z,2.53
2023-02-28T11:01:33.643Z,2.42
2023-02-28T11:04:00.940Z,1.70
2023-02-28T11:06:33.922Z,2.20
2023-02-28T11:09:34.587Z,1.63
2023-02-28T11:12:03.683Z,1.70
2023-02-28T11:14:35.203Z,2.47
2023-02-28T11:17:15.339Z,1.60
2023-02-28T11:19:47.931Z,2.05
2023-02-28T11:22:21.656Z,1.60
2023-02-28T11:27:50.656Z,3.22
2023-02-28T11:30:41.588Z,4.90
2023-02-28T11:33:30.542Z,1.52
2023-02-28T11:36:10.900Z,1.45
2023-02-28T11:38:38.926Z,2.20
2023-02-28T11:41:18.346Z,2.05
2023-02-28T11:43:54.144Z,2.72
2023-02-28T11:46:34.537Z,1.63
2023-02-28T11:49:46.024Z,1.77
2023-02-28T11:52:28.587Z,1.60
2023-02-28T11:55:26.851Z,1.58
2023-02-28T11:58:03.190Z,2.38
2023-02-28T12:00:48.622Z,1.98
2023-02-28T12:03:19.212Z,1.38
2023-02-28T12:05:50.675Z,1.85
2023-02-28T12:08:25.896Z,7.65
2023-02-28T12:11:01.957Z,1.80
2023-02-28T12:13:42.570Z,1.23
2023-02-28T12:16:18.362Z,1.73
2023-02-28T12:19:16.223Z,6.93
2023-02-28T12:22:12.410Z,1.25
2023-02-28T12:24:57.339Z,2.33
2023-02-28T12:27:28.543Z,1.63
2023-02-28T12:30:01.836Z,1.63
2023-02-28T12:32:36.031Z,2.35
2023-02-28T12:35:14.517Z,2.10
2023-02-28T12:37:44.491Z,2.58
2023-02-28T12:40:20.231Z,2.45
2023-02-28T12:42:51.731Z,3.05
2023-02-28T12:45:23.175Z,1.25
2023-02-28T12:48:04.409Z,1.70
2023-02-28T12:50:33.041Z,1.30
2023-02-28T12:53:28.605Z,2.78
2023-02-28T12:56:18.119Z,4.60
2023-02-28T12:58:54.959Z,2.40
2023-02-28T13:01:31.228Z,1.90
2023-02-28T13:04:23.109Z,3.08
2023-02-28T13:07:15.075Z,1.85
2023-02-28T13:09:51.988Z,2.88
2023-02-28T13:12:19.135Z,1.23
2023-02-28T13:14:46.933Z,2.42
2023-02-28T13:17:20.460Z,4.45
2023-02-28T13:20:00.067Z,1.92
2023-02-28T13:22:27.530Z,3.42
2023-02-28T13:24:57.518Z,3.40
2023-02-28T13:27:37.756Z,1.25
2023-02-28T13:30:43.493Z,1.52
2023-02-28T13:33:22.878Z,2.00
2023-02-28T13:35:50.189Z,2.30
2023-02-28T13:38:24.414Z,2.72
2023-02-28T13:40:51.852Z,2.97
2023-02-28T13:43:27.882Z,2.65
2023-02-28T13:46:28.771Z,2.45
2023-02-28T13:48:56.142Z,2.40
2023-02-28T13:51:41.888Z,3.90
2023-02-28T13:54:38.506Z,2.97
2023-02-28T13:57:35.736Z,2.22
2023-02-28T14:00:29.299Z,2.25
2023-02-28T14:03:14.476Z,1.67
2023-02-28T14:05:42.626Z,2.15
2023-02-28T14:08:18.062Z,2.33
2023-02-28T14:10:47.992Z,2.83
2023-02-28T14:13:45.724Z,1.42
2023-02-28T14:16:22.573Z,1.95
2023-02-28T14:19:14.573Z,1.63
2023-02-28T14:22:11.504Z,1.80
2023-02-28T14:25:14.141Z,3.53
2023-02-28T14:27:45.137Z,2.53
2023-02-28T14:30:27.620Z,2.58
2023-02-28T14:33:02.227Z,2.03
2023-02-28T14:36:13.412Z,2.47
2023-02-28T14:38:49.135Z,2.92
2023-02-28T14:41:30.576Z,2.72
2023-02-28T14:44:00.784Z,1.85
2023-02-28T14:46:36.860Z,1.90
2023-02-28T14:49:06.882Z,1.52
2023-02-28T14:51:34.627Z,3.08
2023-02-28T14:54:03.271Z,2.70
2023-02-28T14:56:36.470Z,2.28
2023-02-28T14:59:04.399Z,1.30
2023-02-28T15:01:33.164Z,1.50
2023-02-28T15:04:06.078Z,2.10
2023-02-28T15:06:34.295Z,1.40
2023-02-28T15:09:16.928Z,2.30
2023-02-28T15:11:48.700Z,2.72
2023-02-28T15:14:20.956Z,1.67
2023-02-28T15:16:57.439Z,2.58
2023-02-28T15:19:31.619Z,2.30
2023-02-28T15:22:05.037Z,3.05
2023-02-28T15:24:38.619Z,5.72
2023-02-28T15:27:13.078Z,1.73
2023-02-28T15:29:51.801Z,2.30
2023-02-28T15:32:24.921Z,3.45
2023-02-28T15:34:52.224Z,2.13
2023-02-28T15:37:51.436Z,3.28
2023-02-28T15:40:39.256Z,2.30
2023-02-28T15:43:07.898Z,3.30
2023-02-28T15:45:38.329Z,2.95
2023-02-28T15:48:14.385Z,1.77
2023-02-28T15:50:42.533Z,2.45
2023-02-28T15:53:19.334Z,3.05
2023-02-28T15:55:53.367Z,2.00
2023-02-28T15:58:21.776Z,1.92
2023-02-28T16:01:18.729Z,1.77
2023-02-28T16:03:49.871Z,2.75
2023-02-28T16:06:34.693Z,3.08
2023-02-28T16:09:02.838Z,3.50
2023-02-28T16:11:30.523Z,2.65
2023-02-28T16:13:59.030Z,3.25
2023-02-28T16:16:27.687Z,2.80
2023-02-28T16:18:55.896Z,2.20
2023-02-28T16:21:28.133Z,3.03
2023-02-28T16:23:55.570Z,2.67
2023-02-28T16:26:25.973Z,2.67
2023-02-28T16:28:53.437Z,5.03
2023-02-28T16:31:21.112Z,4.22
2023-02-28T16:33:48.727Z,5.72
2023-02-28T16:36:22.035Z,2.03
2023-02-28T16:38:49.286Z,2.05
2023-02-28T16:41:21.239Z,2.03
2023-02-28T16:43:50.382Z,4.53
2023-02-28T16:46:18.324Z,2.05
2023-02-28T16:48:46.539Z,3.72
2023-02-28T16:51:16.056Z,3.70
2023-02-28T16:53:43.609Z,8.30
2023-02-28T16:56:18.212Z,3.42
2023-02-28T16:58:45.553Z,3.20
2023-02-28T17:01:12.779Z,3.45
2023-02-28T17:03:41.260Z,3.83
2023-02-28T17:06:20.051Z,3.63
2023-02-28T17:08:47.276Z,3.90
2023-02-28T17:11:14.369Z,4.97
2023-02-28T17:13:41.505Z,4.03
2023-02-28T17:16:21.318Z,3.58
2023-02-28T17:18:48.489Z,5.60
2023-02-28T17:21:17.030Z,4.78
2023-02-28T17:23:44.542Z,5.00
2023-02-28T17:26:18.417Z,3.63
2023-02-28T17:28:45.631Z,6.13
2023-02-28T17:31:12.976Z,3.15
2023-02-28T17:33:40.290Z,3.35
2023-02-28T17:36:11.088Z,3.72
2023-02-28T17:38:38.156Z,3.03
2023-02-28T17:41:05.313Z,4.95
2023-02-28T17:43:32.822Z,5.63
2023-02-28T17:46:00.009Z,4.70
2023-02-28T17:48:27.664Z,5.10
2023-02-28T17:50:55.126Z,5.03
2023-02-28T17:53:24.106Z,5.10
2023-02-28T17:55:51.554Z,3.35
2023-02-28T17:58:19.545Z,3.75
2023-02-28T18:00:48.008Z,3.83
2023-02-28T18:03:15.092Z,6.28
2023-02-28T18:05:42.260Z,5.40
2023-02-28T18:08:17.317Z,7.07
2023-02-28T18:10:44.340Z,5.75
2023-02-28T18:13:13.480Z,3.78
2023-02-28T18:15:40.761Z,11.10
2023-02-28T18:18:07.873Z,7.22
2023-02-28T18:20:35.750Z,5.47
2023-02-28T18:23:03.648Z,5.00
2023-02-28T18:25:30.690Z,7.22
2023-02-28T18:27:59.054Z,10.27
2023-02-28T18:30:31.717Z,7.10
2023-02-28T18:33:00.347Z,3.88
2023-02-28T18:35:35.296Z,5.88
2023-02-28T18:38:14.984Z,8.52
2023-02-28T18:40:43.561Z,7.10
2023-02-28T18:43:10.684Z,8.48
2023-02-28T18:45:39.341Z,15.25
2023-02-28T18:48:06.581Z,14.15
2023-02-28T18:50:33.642Z,15.02
2023-02-28T18:53:02.735Z,23.95
2023-02-28T18:55:31.766Z,14.95
2023-02-28T18:57:58.912Z,16.05
2023-02-28T19:00:26.185Z,13.68
2023-02-28T19:02:54.100Z,12.40
2023-02-28T19:05:21.783Z,10.07
2023-02-28T19:07:49.037Z,11.00
2023-02-28T19:10:16.737Z,8.20
2023-02-28T19:12:43.837Z,9.85
2023-02-28T19:15:12.051Z,9.65
2023-02-28T19:17:39.984Z,12.13
2023-02-28T19:20:08.393Z,11.77
2023-02-28T19:22:36.937Z,10.65
2023-02-28T19:25:08.017Z,11.07
2023-02-28T19:27:35.189Z,12.10
2023-02-28T19:30:02.928Z,18.73
2023-02-28T19:32:30.102Z,13.50
2023-02-28T19:34:57.593Z,10.30
2023-02-28T19:37:24.710Z,16.38
2023-02-28T19:39:54.504Z,10.70
2023-02-28T19:42:21.574Z,12.50
2023-02-28T19:44:48.676Z,12.43
2023-02-28T19:47:15.778Z,11.30
2023-02-28T19:49:42.872Z,15.68
2023-02-28T19:52:13.421Z,10.13
2023-02-28T19:54:42.492Z,13.68
2023-02-28T19:57:09.529Z,10.68
2023-02-28T19:59:39.812Z,11.02
2023-02-28T20:02:17.868Z,19.42
2023-02-28T20:04:49.968Z,13.45
2023-02-28T20:07:20.242Z,17.55
2023-02-28T20:09:48.313Z,15.55
2023-02-28T20:12:24.033Z,21.80
2023-02-28T20:14:56.210Z,15.07
2023-02-28T20:17:24.525Z,21.48
2023-02-28T20:19:51.674Z,19.02
2023-02-28T20:22:18.726Z,19.63
2023-02-28T20:24:47.441Z,17.20
2023-02-28T20:27:14.686Z,14.50
2023-02-28T20:29:41.761Z,19.30
2023-02-28T20:32:08.942Z,13.00
2023-02-28T20:34:36.220Z,15.40
2023-02-28T20:37:03.382Z,19.35
2023-02-28T20:39:30.644Z,19.17
2023-02-28T20:41:58.818Z,15.15
2023-02-28T20:44:26.044Z,13.98
2023-02-28T20:46:53.202Z,11.13
2023-02-28T20:49:20.329Z,15.40
2023-02-28T20:51:47.396Z,13.27
2023-02-28T20:54:16.211Z,14.40
2023-02-28T20:56:43.301Z,14.52
2023-02-28T20:59:12.209Z,14.63
2023-02-28T21:01:40.706Z,20.05
2023-02-28T21:04:08.431Z,14.90
2023-02-28T21:06:43.422Z,17.20
2023-02-28T21:09:13.334Z,13.13
2023-02-28T21:11:41.187Z,13.57
2023-02-28T21:14:13.037Z,17.85
2023-02-28T21:16:40.628Z,21.65
2023-02-28T21:19:07.767Z,14.02
2023-02-28T21:21:42.935Z,16.05
2023-02-28T21:24:16.903Z,20.05
2023-02-28T21:26:45.420Z,15.82
2023-02-28T21:29:13.527Z,15.07
2023-02-28T21:31:40.965Z,14.02
2023-02-28T21:34:09.725Z,16.73
2023-02-28T21:36:42.703Z,16.02
2023-02-28T21:39:16.049Z,15.52
2023-02-28T21:41:43.105Z,13.48
2023-02-28T21:44:18.066Z,15.98
2023-02-28T21:46:47.052Z,15.50
2023-02-28T21:49:15.838Z,16.90
2023-02-28T21:51:43.292Z,23.33
2023-02-28T21:54:11.034Z,15.65
2023-02-28T21:56:38.356Z,19.35
2023-02-28T21:59:07.132Z,15.50
2023-02-28T22:01:36.544Z,15.68
2023-02-28T22:04:06.511Z,16.48
2023-02-28T22:06:39.787Z,18.08
2023-02-28T22:09:09.310Z,22.77
2023-02-28T22:11:38.039Z,17.67
2023-02-28T22:14:06.772Z,17.58
2023-02-28T22:16:49.630Z,21.73
2023-02-28T22:19:19.052Z,24.95
2023-02-28T22:21:47.353Z,33.20
2023-02-28T22:24:15.772Z,20.17
2023-02-28T22:26:43.320Z,26.08
2023-02-28T22:29:10.542Z,24.73
2023-02-28T22:31:37.699Z,24.15
2023-02-28T22:34:08.725Z,25.50
2023-02-28T22:36:36.868Z,24.52
2023-02-28T22:39:04.499Z,25.67
2023-02-28T22:41:32.525Z,26.38
2023-02-28T22:44:02.186Z,19.88
2023-02-28T22:46:31.059Z,22.98
2023-02-28T22:49:03.066Z,24.10
2023-02-28T22:51:30.688Z,17.75
2023-02-28T22:53:59.058Z,18.00
2023-02-28T22:56:29.463Z,25.00
2023-02-28T22:58:58.719Z,26.88
2023-02-28T23:01:28.827Z,24.35
2023-02-28T23:03:56.148Z,22.17
2023-02-28T23:06:24.910Z,18.90
2023-02-28T23:08:55.320Z,18.98
2023-02-28T23:11:29.197Z,25.77
2023-02-28T23:13:59.574Z,23.13
2023-02-28T23:16:41.674Z,17.15
2023-02-28T23:19:18.018Z,16.77
2023-02-28T23:21:45.876Z,21.42
2023-02-28T23:24:16.118Z,17.80
2023-02-28T23:26:47.106Z,17.65
2023-02-28T23:29:15.644Z,18.10
2023-02-28T23:31:42.836Z,22.70
2023-02-28T23:34:10.926Z,16.55
2023-02-28T23:36:39.672Z,14.80
2023-02-28T23:39:06.727Z,18.50
2023-02-28T23:41:33.774Z,15.77
2023-02-28T23:44:00.854Z,18.58
2023-02-28T23:46:31.587Z,16.05
2023-02-28T23:48:59.449Z,17.63
2023-02-28T23:51:28.826Z,18.65
2023-02-28T23:53:55.872Z,17.25
2023-02-28T23:56:24.891Z,17.45
2023-02-28T23:58:52.048Z,16.90
